sensor_id;sensor_type;location;lat;lon;timestamp;P1;durP1;ratioP1;P2;durP2;ratioP2
45618;SDS011;31343;47.520;19.144;2022-08-01T00:02:06;3.10;;;1.92;;
45618;SDS011;31343;47.520;19.144;2022-08-01T00:04:31;2.45;;;1.58;;
45618;SDS011;31343;47.520;19.144;2022-08-01T00:06:57;3.20;;;1.65;;
45618;SDS011;31343;47.520;19.144;2022-08-01T00:09:23;3.65;;;1.83;;
45618;SDS011;31343;47.520;19.144;2022-08-01T00:11:48;2.83;;;1.73;;
45618;SDS011;31343;47.520;19.144;2022-08-01T00:14:14;2.72;;;1.58;;
45618;SDS011;31343;47.520;19.144;2022-08-01T00:16:39;2.60;;;1.67;;
45618;SDS011;31343;47.520;19.144;2022-08-01T00:19:05;2.70;;;1.60;;
45618;SDS011;31343;47.520;19.144;2022-08-01T00:21:31;3.00;;;1.90;;
45618;SDS011;31343;47.520;19.144;2022-08-01T00:23:56;3.55;;;1.65;;
45618;SDS011;31343;47.520;19.144;2022-08-01T00:26:22;2.65;;;1.60;;
45618;SDS011;31343;47.520;19.144;2022-08-01T00:28:48;2.50;;;1.90;;
45618;SDS011;31343;47.520;19.144;2022-08-01T00:31:13;2.55;;;1.60;;
45618;SDS011;31343;47.520;19.144;2022-08-01T00:33:39;2.50;;;1.52;;
45618;SDS011;31343;47.520;19.144;2022-08-01T00:36:04;2.38;;;1.42;;
45618;SDS011;31343;47.520;19.144;2022-08-01T00:38:30;3.60;;;2.72;;
45618;SDS011;31343;47.520;19.144;2022-08-01T00:40:56;2.83;;;1.60;;
45618;SDS011;31343;47.520;19.144;2022-08-01T00:43:22;2.28;;;1.65;;
45618;SDS011;31343;47.520;19.144;2022-08-01T00:45:48;4.10;;;2.20;;
45618;SDS011;31343;47.520;19.144;2022-08-01T00:48:14;3.45;;;2.15;;
45618;SDS011;31343;47.520;19.144;2022-08-01T00:50:40;3.05;;;1.80;;
45618;SDS011;31343;47.520;19.144;2022-08-01T00:53:06;3.25;;;1.60;;
45618;SDS011;31343;47.520;19.144;2022-08-01T00:55:33;4.25;;;1.98;;
45618;SDS011;31343;47.520;19.144;2022-08-01T00:57:59;2.08;;;1.50;;
45618;SDS011;31343;47.520;19.144;2022-08-01T01:00:25;3.00;;;2.13;;
45618;SDS011;31343;47.520;19.144;2022-08-01T01:02:51;3.67;;;1.88;;
45618;SDS011;31343;47.520;19.144;2022-08-01T01:05:18;3.60;;;1.70;;
45618;SDS011;31343;47.520;19.144;2022-08-01T01:07:54;2.78;;;1.90;;
45618;SDS011;31343;47.520;19.144;2022-08-01T01:10:32;3.13;;;1.40;;
45618;SDS011;31343;47.520;19.144;2022-08-01T01:13:38;3.42;;;2.25;;
45618;SDS011;31343;47.520;19.144;2022-08-01T01:16:19;3.22;;;1.65;;
45618;SDS011;31343;47.520;19.144;2022-08-01T01:18:51;3.05;;;1.98;;
45618;SDS011;31343;47.520;19.144;2022-08-01T01:31:17;3.17;;;1.98;;
45618;SDS011;31343;47.520;19.144;2022-08-01T01:33:44;3.67;;;2.03;;
45618;SDS011;31343;47.520;19.144;2022-08-01T01:36:11;2.03;;;1.40;;
45618;SDS011;31343;47.520;19.144;2022-08-01T01:38:42;2.78;;;2.00;;
45618;SDS011;31343;47.520;19.144;2022-08-01T01:41:12;2.80;;;1.90;;
45618;SDS011;31343;47.520;19.144;2022-08-01T01:43:40;2.42;;;1.48;;
45618;SDS011;31343;47.520;19.144;2022-08-01T01:46:07;3.15;;;2.00;;
45618;SDS011;31343;47.520;19.144;2022-08-01T01:48:35;3.30;;;1.88;;
45618;SDS011;31343;47.520;19.144;2022-08-01T01:51:03;2.80;;;1.95;;
45618;SDS011;31343;47.520;19.144;2022-08-01T01:53:30;2.70;;;1.77;;
45618;SDS011;31343;47.520;19.144;2022-08-01T01:55:59;2.95;;;1.83;;
45618;SDS011;31343;47.520;19.144;2022-08-01T01:58:27;3.70;;;1.92;;
45618;SDS011;31343;47.520;19.144;2022-08-01T02:00:55;8.30;;;2.20;;
45618;SDS011;31343;47.520;19.144;2022-08-01T02:03:23;2.60;;;1.65;;
45618;SDS011;31343;47.520;19.144;2022-08-01T02:05:51;4.50;;;2.00;;
45618;SDS011;31343;47.520;19.144;2022-08-01T02:08:19;2.60;;;1.67;;
45618;SDS011;31343;47.520;19.144;2022-08-01T02:10:46;3.08;;;1.80;;
45618;SDS011;31343;47.520;19.144;2022-08-01T02:13:32;2.50;;;1.90;;
45618;SDS011;31343;47.520;19.144;2022-08-01T02:15:59;3.33;;;1.95;;
45618;SDS011;31343;47.520;19.144;2022-08-01T02:18:26;2.55;;;1.65;;
45618;SDS011;31343;47.520;19.144;2022-08-01T02:20:52;2.88;;;1.92;;
45618;SDS011;31343;47.520;19.144;2022-08-01T02:23:20;2.15;;;1.70;;
45618;SDS011;31343;47.520;19.144;2022-08-01T02:25:49;3.70;;;1.70;;
45618;SDS011;31343;47.520;19.144;2022-08-01T02:28:25;3.20;;;2.25;;
45618;SDS011;31343;47.520;19.144;2022-08-01T02:30:59;3.90;;;1.90;;
45618;SDS011;31343;47.520;19.144;2022-08-01T02:33:35;2.90;;;1.88;;
45618;SDS011;31343;47.520;19.144;2022-08-01T02:36:06;3.22;;;2.17;;
45618;SDS011;31343;47.520;19.144;2022-08-01T02:38:33;2.70;;;1.90;;
45618;SDS011;31343;47.520;19.144;2022-08-01T02:41:07;2.67;;;1.83;;
45618;SDS011;31343;47.520;19.144;2022-08-01T02:43:38;3.13;;;2.03;;
45618;SDS011;31343;47.520;19.144;2022-08-01T02:46:09;3.38;;;2.40;;
45618;SDS011;31343;47.520;19.144;2022-08-01T02:48:41;3.33;;;1.77;;
45618;SDS011;31343;47.520;19.144;2022-08-01T02:51:07;4.00;;;2.30;;
45618;SDS011;31343;47.520;19.144;2022-08-01T02:53:36;3.10;;;2.00;;
45618;SDS011;31343;47.520;19.144;2022-08-01T02:56:05;2.25;;;1.67;;
45618;SDS011;31343;47.520;19.144;2022-08-01T02:58:33;2.72;;;2.15;;
45618;SDS011;31343;47.520;19.144;2022-08-01T03:01:01;3.17;;;2.10;;
45618;SDS011;31343;47.520;19.144;2022-08-01T03:03:29;3.78;;;2.30;;
45618;SDS011;31343;47.520;19.144;2022-08-01T03:05:56;2.85;;;2.30;;
45618;SDS011;31343;47.520;19.144;2022-08-01T03:08:23;3.22;;;2.15;;
45618;SDS011;31343;47.520;19.144;2022-08-01T03:10:50;4.05;;;2.40;;
45618;SDS011;31343;47.520;19.144;2022-08-01T03:13:17;3.17;;;2.35;;
45618;SDS011;31343;47.520;19.144;2022-08-01T03:15:45;3.35;;;2.05;;
45618;SDS011;31343;47.520;19.144;2022-08-01T03:18:11;4.45;;;2.22;;
45618;SDS011;31343;47.520;19.144;2022-08-01T03:20:39;2.35;;;1.80;;
45618;SDS011;31343;47.520;19.144;2022-08-01T03:23:07;4.10;;;2.00;;
45618;SDS011;31343;47.520;19.144;2022-08-01T03:25:36;2.63;;;1.95;;
45618;SDS011;31343;47.520;19.144;2022-08-01T03:28:04;4.40;;;2.28;;
45618;SDS011;31343;47.520;19.144;2022-08-01T03:30:32;4.40;;;2.67;;
45618;SDS011;31343;47.520;19.144;2022-08-01T03:32:58;3.15;;;2.40;;
45618;SDS011;31343;47.520;19.144;2022-08-01T03:35:26;2.90;;;2.08;;
45618;SDS011;31343;47.520;19.144;2022-08-01T03:37:58;2.50;;;1.67;;
45618;SDS011;31343;47.520;19.144;2022-08-01T03:43:04;3.22;;;1.90;;
45618;SDS011;31343;47.520;19.144;2022-08-01T03:45:41;4.35;;;2.35;;
45618;SDS011;31343;47.520;19.144;2022-08-01T03:48:13;4.00;;;2.30;;
45618;SDS011;31343;47.520;19.144;2022-08-01T03:50:45;3.40;;;2.00;;
45618;SDS011;31343;47.520;19.144;2022-08-01T03:53:13;3.90;;;2.72;;
45618;SDS011;31343;47.520;19.144;2022-08-01T03:55:39;3.08;;;2.05;;
45618;SDS011;31343;47.520;19.144;2022-08-01T03:58:07;3.13;;;2.30;;
45618;SDS011;31343;47.520;19.144;2022-08-01T04:00:35;3.97;;;2.30;;
45618;SDS011;31343;47.520;19.144;2022-08-01T04:03:09;3.25;;;2.10;;
45618;SDS011;31343;47.520;19.144;2022-08-01T04:05:37;3.38;;;2.50;;
45618;SDS011;31343;47.520;19.144;2022-08-01T04:08:05;4.13;;;2.42;;
45618;SDS011;31343;47.520;19.144;2022-08-01T04:10:30;5.57;;;2.35;;
45618;SDS011;31343;47.520;19.144;2022-08-01T04:12:56;4.07;;;2.17;;
45618;SDS011;31343;47.520;19.144;2022-08-01T04:15:22;2.92;;;2.33;;
45618;SDS011;31343;47.520;19.144;2022-08-01T04:17:48;3.05;;;2.15;;
45618;SDS011;31343;47.520;19.144;2022-08-01T04:20:14;2.80;;;2.03;;
45618;SDS011;31343;47.520;19.144;2022-08-01T04:22:40;4.38;;;2.00;;
45618;SDS011;31343;47.520;19.144;2022-08-01T04:25:14;3.28;;;2.13;;
45618;SDS011;31343;47.520;19.144;2022-08-01T04:27:46;4.80;;;2.45;;
45618;SDS011;31343;47.520;19.144;2022-08-01T04:30:14;3.53;;;2.10;;
45618;SDS011;31343;47.520;19.144;2022-08-01T04:32:41;4.38;;;2.38;;
45618;SDS011;31343;47.520;19.144;2022-08-01T04:35:11;4.20;;;2.03;;
45618;SDS011;31343;47.520;19.144;2022-08-01T04:37:41;3.28;;;2.42;;
45618;SDS011;31343;47.520;19.144;2022-08-01T04:40:09;3.80;;;2.35;;
45618;SDS011;31343;47.520;19.144;2022-08-01T04:42:36;3.55;;;2.78;;
45618;SDS011;31343;47.520;19.144;2022-08-01T04:45:02;3.63;;;2.40;;
45618;SDS011;31343;47.520;19.144;2022-08-01T04:47:28;3.83;;;2.25;;
45618;SDS011;31343;47.520;19.144;2022-08-01T04:49:55;3.58;;;2.78;;
45618;SDS011;31343;47.520;19.144;2022-08-01T04:52:22;3.03;;;2.20;;
45618;SDS011;31343;47.520;19.144;2022-08-01T04:54:48;3.80;;;2.53;;
45618;SDS011;31343;47.520;19.144;2022-08-01T04:57:14;3.00;;;2.13;;
45618;SDS011;31343;47.520;19.144;2022-08-01T04:59:41;3.88;;;2.30;;
45618;SDS011;31343;47.520;19.144;2022-08-01T05:02:12;2.88;;;2.20;;
45618;SDS011;31343;47.520;19.144;2022-08-01T05:04:38;4.10;;;2.08;;
45618;SDS011;31343;47.520;19.144;2022-08-01T05:07:05;2.70;;;1.83;;
45618;SDS011;31343;47.520;19.144;2022-08-01T05:09:31;3.15;;;2.13;;
45618;SDS011;31343;47.520;19.144;2022-08-01T05:11:58;2.53;;;1.73;;
45618;SDS011;31343;47.520;19.144;2022-08-01T05:14:26;3.10;;;1.85;;
45618;SDS011;31343;47.520;19.144;2022-08-01T05:16:54;3.45;;;2.33;;
45618;SDS011;31343;47.520;19.144;2022-08-01T05:19:20;3.63;;;1.95;;
45618;SDS011;31343;47.520;19.144;2022-08-01T05:21:46;3.22;;;1.80;;
45618;SDS011;31343;47.520;19.144;2022-08-01T05:24:12;4.25;;;2.58;;
45618;SDS011;31343;47.520;19.144;2022-08-01T05:26:38;3.72;;;2.10;;
45618;SDS011;31343;47.520;19.144;2022-08-01T05:29:04;3.55;;;1.90;;
45618;SDS011;31343;47.520;19.144;2022-08-01T05:31:30;3.42;;;1.75;;
45618;SDS011;31343;47.520;19.144;2022-08-01T05:33:59;5.18;;;2.10;;
45618;SDS011;31343;47.520;19.144;2022-08-01T05:36:26;2.85;;;1.70;;
45618;SDS011;31343;47.520;19.144;2022-08-01T05:38:51;2.75;;;1.70;;
45618;SDS011;31343;47.520;19.144;2022-08-01T05:41:17;3.20;;;1.98;;
45618;SDS011;31343;47.520;19.144;2022-08-01T05:43:43;2.50;;;1.70;;
45618;SDS011;31343;47.520;19.144;2022-08-01T05:46:08;3.08;;;1.95;;
45618;SDS011;31343;47.520;19.144;2022-08-01T05:48:34;2.63;;;1.50;;
45618;SDS011;31343;47.520;19.144;2022-08-01T05:50:59;2.13;;;1.60;;
45618;SDS011;31343;47.520;19.144;2022-08-01T05:53:25;3.10;;;1.95;;
45618;SDS011;31343;47.520;19.144;2022-08-01T05:55:51;2.10;;;1.50;;
45618;SDS011;31343;47.520;19.144;2022-08-01T05:58:17;2.92;;;1.60;;
45618;SDS011;31343;47.520;19.144;2022-08-01T06:00:43;2.97;;;1.50;;
45618;SDS011;31343;47.520;19.144;2022-08-01T06:03:08;2.13;;;1.38;;
45618;SDS011;31343;47.520;19.144;2022-08-01T06:05:36;2.65;;;1.60;;
45618;SDS011;31343;47.520;19.144;2022-08-01T06:08:02;2.55;;;1.85;;
45618;SDS011;31343;47.520;19.144;2022-08-01T06:10:27;3.72;;;1.50;;
45618;SDS011;31343;47.520;19.144;2022-08-01T06:12:53;3.17;;;1.73;;
45618;SDS011;31343;47.520;19.144;2022-08-01T06:15:19;2.60;;;1.42;;
45618;SDS011;31343;47.520;19.144;2022-08-01T06:17:44;2.72;;;1.65;;
45618;SDS011;31343;47.520;19.144;2022-08-01T06:20:10;2.53;;;1.55;;
45618;SDS011;31343;47.520;19.144;2022-08-01T06:22:36;2.55;;;1.70;;
45618;SDS011;31343;47.520;19.144;2022-08-01T06:25:02;2.33;;;1.38;;
45618;SDS011;31343;47.520;19.144;2022-08-01T06:27:28;2.55;;;1.60;;
45618;SDS011;31343;47.520;19.144;2022-08-01T06:29:53;2.50;;;1.58;;
45618;SDS011;31343;47.520;19.144;2022-08-01T06:32:23;3.15;;;1.48;;
45618;SDS011;31343;47.520;19.144;2022-08-01T06:34:50;3.58;;;1.52;;
45618;SDS011;31343;47.520;19.144;2022-08-01T06:37:16;2.58;;;1.48;;
45618;SDS011;31343;47.520;19.144;2022-08-01T06:39:42;2.50;;;1.52;;
45618;SDS011;31343;47.520;19.144;2022-08-01T06:42:07;2.53;;;1.30;;
45618;SDS011;31343;47.520;19.144;2022-08-01T06:44:34;2.83;;;1.70;;
45618;SDS011;31343;47.520;19.144;2022-08-01T06:47:00;2.10;;;1.60;;
45618;SDS011;31343;47.520;19.144;2022-08-01T06:49:26;3.45;;;1.40;;
45618;SDS011;31343;47.520;19.144;2022-08-01T06:51:51;2.08;;;1.27;;
45618;SDS011;31343;47.520;19.144;2022-08-01T06:54:20;2.25;;;1.33;;
45618;SDS011;31343;47.520;19.144;2022-08-01T06:56:46;2.00;;;1.20;;
45618;SDS011;31343;47.520;19.144;2022-08-01T06:59:12;1.85;;;1.30;;
45618;SDS011;31343;47.520;19.144;2022-08-01T07:01:37;2.28;;;1.30;;
45618;SDS011;31343;47.520;19.144;2022-08-01T07:04:03;2.80;;;1.58;;
45618;SDS011;31343;47.520;19.144;2022-08-01T07:06:29;2.17;;;1.42;;
45618;SDS011;31343;47.520;19.144;2022-08-01T07:08:55;2.42;;;1.48;;
45618;SDS011;31343;47.520;19.144;2022-08-01T07:11:21;2.80;;;1.45;;
45618;SDS011;31343;47.520;19.144;2022-08-01T07:13:48;2.25;;;1.20;;
45618;SDS011;31343;47.520;19.144;2022-08-01T07:16:14;2.20;;;1.35;;
45618;SDS011;31343;47.520;19.144;2022-08-01T07:18:40;2.13;;;1.40;;
45618;SDS011;31343;47.520;19.144;2022-08-01T07:21:06;2.38;;;1.30;;
45618;SDS011;31343;47.520;19.144;2022-08-01T07:23:32;1.98;;;1.25;;
45618;SDS011;31343;47.520;19.144;2022-08-01T07:25:58;2.65;;;1.30;;
45618;SDS011;31343;47.520;19.144;2022-08-01T07:28:26;2.08;;;1.38;;
45618;SDS011;31343;47.520;19.144;2022-08-01T07:30:52;2.47;;;1.40;;
45618;SDS011;31343;47.520;19.144;2022-08-01T07:33:18;2.17;;;1.27;;
45618;SDS011;31343;47.520;19.144;2022-08-01T07:35:44;1.85;;;1.17;;
45618;SDS011;31343;47.520;19.144;2022-08-01T07:38:09;2.55;;;1.50;;
45618;SDS011;31343;47.520;19.144;2022-08-01T07:40:35;3.30;;;1.52;;
45618;SDS011;31343;47.520;19.144;2022-08-01T07:43:01;2.85;;;1.48;;
45618;SDS011;31343;47.520;19.144;2022-08-01T07:45:26;4.15;;;1.20;;
45618;SDS011;31343;47.520;19.144;2022-08-01T07:47:52;3.10;;;1.48;;
45618;SDS011;31343;47.520;19.144;2022-08-01T07:50:18;3.20;;;1.42;;
45618;SDS011;31343;47.520;19.144;2022-08-01T07:52:44;2.08;;;1.25;;
45618;SDS011;31343;47.520;19.144;2022-08-01T07:55:10;2.97;;;1.50;;
45618;SDS011;31343;47.520;19.144;2022-08-01T07:57:37;2.30;;;1.42;;
45618;SDS011;31343;47.520;19.144;2022-08-01T08:00:03;2.05;;;1.23;;
45618;SDS011;31343;47.520;19.144;2022-08-01T08:02:31;2.17;;;1.20;;
45618;SDS011;31343;47.520;19.144;2022-08-01T08:04:57;2.40;;;1.30;;
45618;SDS011;31343;47.520;19.144;2022-08-01T08:07:23;1.95;;;1.20;;
45618;SDS011;31343;47.520;19.144;2022-08-01T08:09:48;2.15;;;1.42;;
45618;SDS011;31343;47.520;19.144;2022-08-01T08:12:14;2.83;;;1.20;;
45618;SDS011;31343;47.520;19.144;2022-08-01T08:14:40;2.17;;;1.30;;
45618;SDS011;31343;47.520;19.144;2022-08-01T08:17:06;2.17;;;1.30;;
45618;SDS011;31343;47.520;19.144;2022-08-01T08:19:32;1.80;;;1.15;;
45618;SDS011;31343;47.520;19.144;2022-08-01T08:21:59;2.10;;;1.13;;
45618;SDS011;31343;47.520;19.144;2022-08-01T08:24:25;2.08;;;1.30;;
45618;SDS011;31343;47.520;19.144;2022-08-01T08:26:58;2.53;;;1.30;;
45618;SDS011;31343;47.520;19.144;2022-08-01T08:29:25;1.90;;;1.23;;
45618;SDS011;31343;47.520;19.144;2022-08-01T08:31:54;2.58;;;1.42;;
45618;SDS011;31343;47.520;19.144;2022-08-01T08:34:21;2.08;;;1.30;;
45618;SDS011;31343;47.520;19.144;2022-08-01T08:36:47;2.95;;;1.70;;
45618;SDS011;31343;47.520;19.144;2022-08-01T08:39:14;2.15;;;1.45;;
45618;SDS011;31343;47.520;19.144;2022-08-01T08:41:40;2.38;;;1.65;;
45618;SDS011;31343;47.520;19.144;2022-08-01T08:44:06;2.10;;;1.40;;
45618;SDS011;31343;47.520;19.144;2022-08-01T08:46:33;2.42;;;1.60;;
45618;SDS011;31343;47.520;19.144;2022-08-01T08:49:08;2.50;;;1.58;;
45618;SDS011;31343;47.520;19.144;2022-08-01T08:51:35;3.03;;;1.38;;
45618;SDS011;31343;47.520;19.144;2022-08-01T08:54:05;2.33;;;1.42;;
45618;SDS011;31343;47.520;19.144;2022-08-01T08:56:31;2.30;;;1.42;;
45618;SDS011;31343;47.520;19.144;2022-08-01T08:59:00;2.85;;;1.80;;
45618;SDS011;31343;47.520;19.144;2022-08-01T09:01:27;4.32;;;2.08;;
45618;SDS011;31343;47.520;19.144;2022-08-01T09:03:53;3.47;;;1.60;;
45618;SDS011;31343;47.520;19.144;2022-08-01T09:06:19;2.50;;;1.70;;
45618;SDS011;31343;47.520;19.144;2022-08-01T09:08:45;3.47;;;1.80;;
45618;SDS011;31343;47.520;19.144;2022-08-01T09:11:13;2.30;;;1.40;;
45618;SDS011;31343;47.520;19.144;2022-08-01T09:13:38;2.95;;;2.00;;
45618;SDS011;31343;47.520;19.144;2022-08-01T09:16:04;3.92;;;1.40;;
45618;SDS011;31343;47.520;19.144;2022-08-01T09:23:47;2.20;;;1.52;;
45618;SDS011;31343;47.520;19.144;2022-08-01T09:26:17;2.30;;;1.33;;
45618;SDS011;31343;47.520;19.144;2022-08-01T09:28:45;3.70;;;1.80;;
45618;SDS011;31343;47.520;19.144;2022-08-01T09:31:15;3.70;;;1.80;;
45618;SDS011;31343;47.520;19.144;2022-08-01T09:33:55;2.55;;;1.50;;
45618;SDS011;31343;47.520;19.144;2022-08-01T09:36:26;3.28;;;1.90;;
45618;SDS011;31343;47.520;19.144;2022-08-01T09:39:12;2.20;;;1.45;;
45618;SDS011;31343;47.520;19.144;2022-08-01T09:41:39;2.97;;;1.83;;
45618;SDS011;31343;47.520;19.144;2022-08-01T09:44:04;3.38;;;1.65;;
45618;SDS011;31343;47.520;19.144;2022-08-01T09:46:30;2.60;;;1.65;;
45618;SDS011;31343;47.520;19.144;2022-08-01T09:48:59;3.75;;;1.65;;
45618;SDS011;31343;47.520;19.144;2022-08-01T09:51:35;3.72;;;1.80;;
45618;SDS011;31343;47.520;19.144;2022-08-01T09:54:03;5.95;;;2.50;;
45618;SDS011;31343;47.520;19.144;2022-08-01T09:56:39;4.47;;;1.70;;
45618;SDS011;31343;47.520;19.144;2022-08-01T09:59:10;2.47;;;1.77;;
45618;SDS011;31343;47.520;19.144;2022-08-01T10:01:45;4.32;;;1.83;;
45618;SDS011;31343;47.520;19.144;2022-08-01T10:04:15;2.28;;;1.60;;
45618;SDS011;31343;47.520;19.144;2022-08-01T10:06:43;2.50;;;1.70;;
45618;SDS011;31343;47.520;19.144;2022-08-01T10:09:13;2.78;;;1.90;;
45618;SDS011;31343;47.520;19.144;2022-08-01T10:11:40;2.65;;;1.52;;
45618;SDS011;31343;47.520;19.144;2022-08-01T10:14:07;5.60;;;1.80;;
45618;SDS011;31343;47.520;19.144;2022-08-01T10:16:33;3.15;;;1.70;;
45618;SDS011;31343;47.520;19.144;2022-08-01T10:19:01;2.40;;;1.65;;
45618;SDS011;31343;47.520;19.144;2022-08-01T10:21:28;2.70;;;1.75;;
45618;SDS011;31343;47.520;19.144;2022-08-01T10:23:57;2.30;;;1.58;;
45618;SDS011;31343;47.520;19.144;2022-08-01T10:26:25;3.38;;;1.70;;
45618;SDS011;31343;47.520;19.144;2022-08-01T10:28:51;2.28;;;1.60;;
45618;SDS011;31343;47.520;19.144;2022-08-01T10:31:19;2.78;;;1.70;;
45618;SDS011;31343;47.520;19.144;2022-08-01T10:33:45;2.45;;;1.58;;
45618;SDS011;31343;47.520;19.144;2022-08-01T10:36:11;3.38;;;1.65;;
45618;SDS011;31343;47.520;19.144;2022-08-01T10:38:37;3.00;;;1.73;;
45618;SDS011;31343;47.520;19.144;2022-08-01T10:41:04;3.67;;;1.60;;
45618;SDS011;31343;47.520;19.144;2022-08-01T10:43:30;3.42;;;2.10;;
45618;SDS011;31343;47.520;19.144;2022-08-01T10:45:55;3.08;;;1.80;;
45618;SDS011;31343;47.520;19.144;2022-08-01T10:51:06;2.88;;;1.50;;
45618;SDS011;31343;47.520;19.144;2022-08-01T10:53:33;2.53;;;1.58;;
45618;SDS011;31343;47.520;19.144;2022-08-01T10:56:01;2.30;;;1.58;;
45618;SDS011;31343;47.520;19.144;2022-08-01T10:58:35;3.63;;;1.80;;
45618;SDS011;31343;47.520;19.144;2022-08-01T11:01:16;3.28;;;1.80;;
45618;SDS011;31343;47.520;19.144;2022-08-01T11:09:00;2.80;;;1.90;;
45618;SDS011;31343;47.520;19.144;2022-08-01T11:12:22;3.00;;;1.90;;
45618;SDS011;31343;47.520;19.144;2022-08-01T11:15:22;2.60;;;1.60;;
45618;SDS011;31343;47.520;19.144;2022-08-01T11:22:30;2.22;;;1.40;;
45618;SDS011;31343;47.520;19.144;2022-08-01T11:24:56;3.20;;;1.70;;
45618;SDS011;31343;47.520;19.144;2022-08-01T11:27:30;2.50;;;1.48;;
45618;SDS011;31343;47.520;19.144;2022-08-01T11:32:34;3.33;;;1.80;;
45618;SDS011;31343;47.520;19.144;2022-08-01T11:35:13;2.40;;;1.60;;
45618;SDS011;31343;47.520;19.144;2022-08-01T11:37:39;2.13;;;1.48;;
45618;SDS011;31343;47.520;19.144;2022-08-01T11:40:18;2.05;;;1.50;;
45618;SDS011;31343;47.520;19.144;2022-08-01T11:45:50;2.47;;;1.50;;
45618;SDS011;31343;47.520;19.144;2022-08-01T11:48:22;2.40;;;1.30;;
45618;SDS011;31343;47.520;19.144;2022-08-01T11:50:54;2.45;;;1.38;;
45618;SDS011;31343;47.520;19.144;2022-08-01T11:53:21;3.70;;;1.80;;
45618;SDS011;31343;47.520;19.144;2022-08-01T11:55:50;3.63;;;1.60;;
45618;SDS011;31343;47.520;19.144;2022-08-01T11:58:21;2.42;;;1.73;;
45618;SDS011;31343;47.520;19.144;2022-08-01T12:00:55;1.85;;;1.20;;
45618;SDS011;31343;47.520;19.144;2022-08-01T12:03:24;2.40;;;1.60;;
45618;SDS011;31343;47.520;19.144;2022-08-01T12:05:54;2.72;;;1.67;;
45618;SDS011;31343;47.520;19.144;2022-08-01T12:08:25;2.03;;;1.48;;
45618;SDS011;31343;47.520;19.144;2022-08-01T12:10:52;2.78;;;1.42;;
45618;SDS011;31343;47.520;19.144;2022-08-01T12:13:18;2.33;;;1.65;;
45618;SDS011;31343;47.520;19.144;2022-08-01T12:15:45;2.20;;;1.48;;
45618;SDS011;31343;47.520;19.144;2022-08-01T12:18:11;2.42;;;1.50;;
45618;SDS011;31343;47.520;19.144;2022-08-01T12:20:41;2.97;;;1.73;;
45618;SDS011;31343;47.520;19.144;2022-08-01T12:23:11;2.37;;;1.60;;
45618;SDS011;31343;47.520;19.144;2022-08-01T12:25:38;3.30;;;1.50;;
45618;SDS011;31343;47.520;19.144;2022-08-01T12:28:07;2.17;;;1.55;;
45618;SDS011;31343;47.520;19.144;2022-08-01T12:30:36;2.10;;;1.50;;
45618;SDS011;31343;47.520;19.144;2022-08-01T12:33:11;2.63;;;1.58;;
45618;SDS011;31343;47.520;19.144;2022-08-01T12:35:42;2.90;;;1.63;;
45618;SDS011;31343;47.520;19.144;2022-08-01T12:38:19;2.42;;;1.50;;
45618;SDS011;31343;47.520;19.144;2022-08-01T12:40:50;2.10;;;1.48;;
45618;SDS011;31343;47.520;19.144;2022-08-01T12:43:17;3.70;;;1.45;;
45618;SDS011;31343;47.520;19.144;2022-08-01T12:45:47;2.47;;;1.70;;
45618;SDS011;31343;47.520;19.144;2022-08-01T12:48:16;4.15;;;1.70;;
45618;SDS011;31343;47.520;19.144;2022-08-01T12:50:45;2.42;;;1.83;;
45618;SDS011;31343;47.520;19.144;2022-08-01T12:53:16;3.58;;;1.88;;
45618;SDS011;31343;47.520;19.144;2022-08-01T12:55:47;2.15;;;1.42;;
45618;SDS011;31343;47.520;19.144;2022-08-01T12:58:18;3.35;;;2.10;;
45618;SDS011;31343;47.520;19.144;2022-08-01T13:00:48;3.28;;;1.90;;
45618;SDS011;31343;47.520;19.144;2022-08-01T13:03:18;2.40;;;1.63;;
45618;SDS011;31343;47.520;19.144;2022-08-01T13:05:46;3.53;;;1.90;;
45618;SDS011;31343;47.520;19.144;2022-08-01T13:08:15;3.80;;;2.03;;
45618;SDS011;31343;47.520;19.144;2022-08-01T13:10:46;3.17;;;1.98;;
45618;SDS011;31343;47.520;19.144;2022-08-01T13:13:13;3.00;;;2.22;;
45618;SDS011;31343;47.520;19.144;2022-08-01T13:15:41;3.45;;;2.28;;
45618;SDS011;31343;47.520;19.144;2022-08-01T13:18:26;3.28;;;2.00;;
45618;SDS011;31343;47.520;19.144;2022-08-01T13:21:16;3.00;;;2.17;;
45618;SDS011;31343;47.520;19.144;2022-08-01T13:24:05;3.15;;;2.08;;
45618;SDS011;31343;47.520;19.144;2022-08-01T13:26:41;2.00;;;1.58;;
45618;SDS011;31343;47.520;19.144;2022-08-01T13:29:11;2.47;;;1.60;;
45618;SDS011;31343;47.520;19.144;2022-08-01T13:31:41;3.05;;;1.73;;
45618;SDS011;31343;47.520;19.144;2022-08-01T13:34:08;2.75;;;1.73;;
45618;SDS011;31343;47.520;19.144;2022-08-01T13:36:35;3.50;;;1.63;;
45618;SDS011;31343;47.520;19.144;2022-08-01T13:39:03;3.15;;;1.73;;
45618;SDS011;31343;47.520;19.144;2022-08-01T13:41:48;2.10;;;1.42;;
45618;SDS011;31343;47.520;19.144;2022-08-01T13:44:14;2.67;;;1.35;;
45618;SDS011;31343;47.520;19.144;2022-08-01T13:46:41;1.83;;;1.25;;
45618;SDS011;31343;47.520;19.144;2022-08-01T13:49:09;2.60;;;1.40;;
45618;SDS011;31343;47.520;19.144;2022-08-01T13:51:36;2.10;;;1.40;;
45618;SDS011;31343;47.520;19.144;2022-08-01T13:54:03;2.63;;;1.50;;
45618;SDS011;31343;47.520;19.144;2022-08-01T13:56:29;3.22;;;1.38;;
45618;SDS011;31343;47.520;19.144;2022-08-01T13:58:55;1.83;;;1.30;;
45618;SDS011;31343;47.520;19.144;2022-08-01T14:01:22;2.25;;;1.63;;
45618;SDS011;31343;47.520;19.144;2022-08-01T14:03:48;1.90;;;1.27;;
45618;SDS011;31343;47.520;19.144;2022-08-01T14:06:15;2.40;;;1.50;;
45618;SDS011;31343;47.520;19.144;2022-08-01T14:08:42;2.65;;;1.30;;
45618;SDS011;31343;47.520;19.144;2022-08-01T14:11:08;2.20;;;1.40;;
45618;SDS011;31343;47.520;19.144;2022-08-01T14:13:34;2.53;;;1.52;;
45618;SDS011;31343;47.520;19.144;2022-08-01T14:16:02;2.30;;;1.48;;
45618;SDS011;31343;47.520;19.144;2022-08-01T14:18:28;3.15;;;1.35;;
45618;SDS011;31343;47.520;19.144;2022-08-01T14:20:55;2.53;;;1.50;;
45618;SDS011;31343;47.520;19.144;2022-08-01T14:23:22;2.50;;;1.70;;
45618;SDS011;31343;47.520;19.144;2022-08-01T14:25:48;2.55;;;1.70;;
45618;SDS011;31343;47.520;19.144;2022-08-01T14:28:14;3.20;;;1.40;;
45618;SDS011;31343;47.520;19.144;2022-08-01T14:30:40;2.78;;;1.75;;
45618;SDS011;31343;47.520;19.144;2022-08-01T14:33:07;2.95;;;1.80;;
45618;SDS011;31343;47.520;19.144;2022-08-01T14:35:34;2.63;;;1.52;;
45618;SDS011;31343;47.520;19.144;2022-08-01T14:38:05;2.60;;;1.60;;
45618;SDS011;31343;47.520;19.144;2022-08-01T14:40:32;2.00;;;1.35;;
45618;SDS011;31343;47.520;19.144;2022-08-01T14:43:01;2.42;;;1.50;;
45618;SDS011;31343;47.520;19.144;2022-08-01T14:45:27;2.50;;;1.60;;
45618;SDS011;31343;47.520;19.144;2022-08-01T14:47:53;2.28;;;1.50;;
45618;SDS011;31343;47.520;19.144;2022-08-01T14:50:19;2.20;;;1.60;;
45618;SDS011;31343;47.520;19.144;2022-08-01T14:52:46;4.15;;;1.80;;
45618;SDS011;31343;47.520;19.144;2022-08-01T14:55:11;2.20;;;1.50;;
45618;SDS011;31343;47.520;19.144;2022-08-01T14:57:39;3.08;;;1.80;;
45618;SDS011;31343;47.520;19.144;2022-08-01T15:00:07;2.10;;;1.40;;
45618;SDS011;31343;47.520;19.144;2022-08-01T15:02:41;2.72;;;1.50;;
45618;SDS011;31343;47.520;19.144;2022-08-01T15:05:08;2.97;;;1.50;;
45618;SDS011;31343;47.520;19.144;2022-08-01T15:07:35;2.78;;;1.60;;
45618;SDS011;31343;47.520;19.144;2022-08-01T15:10:02;2.30;;;1.50;;
45618;SDS011;31343;47.520;19.144;2022-08-01T15:12:31;2.92;;;1.30;;
45618;SDS011;31343;47.520;19.144;2022-08-01T15:14:58;2.17;;;1.50;;
45618;SDS011;31343;47.520;19.144;2022-08-01T15:17:25;2.45;;;1.45;;